Main page
METAR-TAF:

METAR-TAF

Airports :

Balad, Iraq

Balad Air Base

latitude: 33-56N, longitude: 44-22E, elevation: 49 m

Current weather observation

The report was made 58 minutes ago, at 03:55 UTC
Wind 4 kt from the West/Northwest
Temperature 15°C
Humidity 31%
Pressure 1013 hPa
Visibility 10 km or more
Clear sky

METAR: ORBD 220355Z 29004KT 9999 CLR 15/M02 A2991 RMK WND DATA ALSTG ESTMD

Time: 07:53 (04:53 UTC)

Forecast

The report was made 1 hour and 53 minutes ago, at 03:00 UTC
Forecast valid from 22 at 03 UTC to 23 at 09 UTC
Wind 6 kt from variable directions
Visibility 10 km or more
Clear sky
Becoming
from 23 at 07 UTC to 23 at 09 UTC
Wind 10 kt from the South/Southwest with gusts up to 15 kt
Visibility 10 km or more
Clear sky

TAF: ORBD 220300Z 2203/2309 VRB06KT 9999 SKC QNH2987INS BECMG 2307/2309 20010G15KT 9999 SKC QNH2985INS TX31/2212Z TN15/2203Z

Weather observations and forecasts of more than 4000 airports (METAR and TAF reports).

The available stations are represented by yellow and red dots on the map.

Hover mouse over dot to see the name of the station.

Then click to see weather observations and forecasts.

To change the map : click on the green buttons with a black cross to zoom in, on the green button with a dash to zoom out, or on the green arrows for adjacent maps.


METAR-TAF: